Impacts TAF Board
For situational awareness. Not to be used for flight planning purposes.
IDs:

KJFK - New York/Kennedy Int, NY, US

Issued at 0855 UTC 17 Feb 2019
Updated at 0934 UTC 17 Feb 2019
Potential Impact None Slight Moderate High
Time<<17/22Z 17/23Z 18/00Z 18/01Z 18/02Z 18/03Z 18/04Z 18/05Z 18/06Z 18/07Z 18/08Z 18/09Z 18/10Z>>
Type PRVL PRVL PRVL PRVL PRVL PRVL PRVL PRVL PRVL PRVL PRVL PRVL PRVL
VIS >6 >6 >6 >6 >6 3 3 3 3 2 2 2 2
CIG 200 200 200 200 200 25 25 25 25 8 8 8 6
Cover BKN BKN BKN BKN BKN OVC OVC OVC OVC BKN BKN BKN BKN
FltCat VFR VFR VFR VFR VFR MVFR MVFR MVFR MVFR IFR IFR IFR IFR
WX -- -- -- -- -- -SN -PL BR -SN -PL BR -SN -PL BR -SN -PL BR -PL -RA BR -PL -RA BR -PL -RA BR -RA BR
WDir 170 170 170 170 170 120 120 120 120 70 70 70 60
WSpd 7 7 7 7 7 8 8 8 8 10 10 10 12
WGst -- -- -- -- -- -- -- -- -- -- -- -- --
Raw TAF
KJFK 170855Z 1709/1812 36010KT P6SM FEW250
  FM171300 03007KT P6SM FEW250
  FM171800 14005KT P6SM SCT250
  FM172000 17007KT P6SM SCT100 BKN200
  FM180300 12008KT 3SM -SNPL BR BKN025 OVC050
  FM180700 07010KT 2SM -PLRA BR BKN008
  FM181000 06012KT 2SM -RA BR BKN006


METAR Board
Radar Display
Forecast Discussion
For situational awareness. Not to be used for flight planning purposes.